createdAt,value
2023-03-18T00:00:01.768Z,99999.50
2023-03-18T00:02:28.285Z,100012.16
2023-03-18T00:04:54.684Z,100000.16
2023-03-18T00:07:21.256Z,99999.25
2023-03-18T00:09:47.762Z,99997.56
2023-03-18T00:12:14.202Z,99996.91
2023-03-18T00:14:40.731Z,99992.16
2023-03-18T00:17:08.052Z,99993.19
2023-03-18T00:19:34.490Z,99998.13
2023-03-18T00:22:00.988Z,99997.16
2023-03-18T00:24:28.298Z,100003.47
2023-03-18T00:26:54.987Z,99999.81
2023-03-18T00:29:21.502Z,100001.91
2023-03-18T00:31:47.935Z,100004.03
2023-03-18T00:34:14.767Z,100012.59
2023-03-18T00:36:41.721Z,100013.16
2023-03-18T00:39:09.282Z,100009.25
2023-03-18T00:41:37.977Z,100015.31
2023-03-18T00:44:05.154Z,100016.66
2023-03-18T00:46:34.725Z,100016.38
2023-03-18T00:49:05.061Z,100010.91
2023-03-18T00:51:34.276Z,100018.34
2023-03-18T00:54:02.627Z,100023.19
2023-03-18T00:56:31.942Z,100020.66
2023-03-18T00:58:58.533Z,100012.63
2023-03-18T01:01:25.783Z,100015.06
2023-03-18T01:03:52.512Z,100021.91
2023-03-18T01:06:28.388Z,100016.59
2023-03-18T01:08:56.096Z,100021.59
2023-03-18T01:11:23.414Z,100031.75
2023-03-18T01:13:50.131Z,100027.41
2023-03-18T01:16:16.971Z,100026.56
2023-03-18T01:18:43.563Z,100019.69
2023-03-18T01:21:10.611Z,100020.88
2023-03-18T01:23:38.082Z,100022.38
2023-03-18T01:26:06.026Z,100018.75
2023-03-18T01:28:33.097Z,100015.84
2023-03-18T01:30:59.869Z,100015.06
2023-03-18T01:33:26.291Z,100020.22
2023-03-18T01:36:00.385Z,100024.28
2023-03-18T01:38:31.335Z,100020.75
2023-03-18T01:40:59.656Z,100019.59
2023-03-18T01:43:30.501Z,100030.28
2023-03-18T01:45:59.893Z,100028.75
2023-03-18T01:48:30.815Z,100026.09
2023-03-18T01:51:02.852Z,100031.16
2023-03-18T01:53:36.031Z,100031.59
2023-03-18T01:56:03.937Z,100031.16
2023-03-18T01:58:39.611Z,100032.88
2023-03-18T02:01:12.988Z,100032.88
2023-03-18T02:03:41.901Z,100039.91
2023-03-18T02:06:10.048Z,100033.44
2023-03-18T02:08:39.449Z,100035.66
2023-03-18T02:11:08.055Z,100032.34
2023-03-18T02:13:43.126Z,100044.00
2023-03-18T02:16:24.190Z,100038.22
2023-03-18T02:18:55.288Z,100034.72
2023-03-18T02:22:03.666Z,100040.03
2023-03-18T02:25:06.774Z,100042.44
2023-03-18T02:27:37.601Z,100041.41
2023-03-18T02:30:18.832Z,100039.91
2023-03-18T02:32:48.307Z,100041.34
2023-03-18T02:35:15.472Z,100044.13
2023-03-18T02:37:41.996Z,100048.06
2023-03-18T02:40:26.777Z,100052.53
2023-03-18T02:42:53.503Z,100059.00
2023-03-18T02:45:39.520Z,100056.31
2023-03-18T02:48:08.335Z,100055.66
2023-03-18T02:50:34.783Z,100059.69
2023-03-18T02:53:04.114Z,100062.38
2023-03-18T02:55:30.901Z,100066.31
2023-03-18T02:57:57.386Z,100064.28
2023-03-18T03:00:23.986Z,100064.63
2023-03-18T03:02:50.790Z,100075.13
2023-03-18T03:05:17.473Z,100067.94
2023-03-18T03:07:43.910Z,100063.19
2023-03-18T03:10:11.312Z,100063.75
2023-03-18T03:12:37.888Z,100077.63
2023-03-18T03:15:07.883Z,100065.84
2023-03-18T03:17:35.646Z,100064.09
2023-03-18T03:20:03.483Z,100067.94
2023-03-18T03:22:30.299Z,100070.44
2023-03-18T03:24:56.715Z,100071.84
2023-03-18T03:27:23.139Z,100074.66
2023-03-18T03:29:50.081Z,100067.88
2023-03-18T03:32:17.113Z,100076.03
2023-03-18T03:34:43.741Z,100080.13
2023-03-18T03:37:10.395Z,100074.50
2023-03-18T03:39:36.833Z,100083.50
2023-03-18T03:42:03.382Z,100094.00
2023-03-18T03:44:30.243Z,100099.34
2023-03-18T03:46:56.676Z,100086.19
2023-03-18T03:49:23.598Z,100097.47
2023-03-18T03:51:50.053Z,100097.66
2023-03-18T03:54:16.711Z,100098.69
2023-03-18T03:56:43.180Z,100107.53
2023-03-18T03:59:10.236Z,100102.19
2023-03-18T04:01:36.704Z,100112.84
2023-03-18T04:04:03.986Z,100110.88
2023-03-18T04:06:31.026Z,100110.03
2023-03-18T04:08:57.478Z,100109.44
2023-03-18T04:11:24.236Z,100106.03
2023-03-18T04:13:50.726Z,100113.66
2023-03-18T04:16:17.266Z,100111.16
2023-03-18T04:18:43.773Z,100111.09
2023-03-18T04:21:10.381Z,100111.25
2023-03-18T04:23:37.375Z,100110.56
2023-03-18T04:26:05.386Z,100120.66
2023-03-18T04:28:31.851Z,100115.69
2023-03-18T04:30:58.506Z,100117.19
2023-03-18T04:33:25.511Z,100117.47
2023-03-18T04:35:52.607Z,100122.88
2023-03-18T04:38:19.365Z,100117.81
2023-03-18T04:40:47.631Z,100114.44
2023-03-18T04:43:14.143Z,100108.59
2023-03-18T04:45:40.574Z,100105.56
2023-03-18T04:48:07.151Z,100103.47
2023-03-18T04:50:34.350Z,100105.81
2023-03-18T04:53:00.759Z,100120.22
2023-03-18T04:55:27.320Z,100123.75
2023-03-18T04:57:54.532Z,100109.09
2023-03-18T05:00:22.205Z,100135.13
2023-03-18T05:02:48.922Z,100130.63
2023-03-18T05:05:15.473Z,100136.53
2023-03-18T05:07:42.395Z,100142.38
2023-03-18T05:10:09.748Z,100133.78
2023-03-18T05:12:37.055Z,100144.34
2023-03-18T05:15:05.556Z,100144.59
2023-03-18T05:17:31.980Z,100136.59
2023-03-18T05:19:58.431Z,100134.03
2023-03-18T05:22:25.230Z,100134.34
2023-03-18T05:24:51.866Z,100132.03
2023-03-18T05:27:19.902Z,100136.31
2023-03-18T05:29:46.560Z,100133.00
2023-03-18T05:32:14.679Z,100132.88
2023-03-18T05:34:41.697Z,100125.88
2023-03-18T05:37:10.470Z,100133.72
2023-03-18T05:39:37.364Z,100129.88
2023-03-18T05:42:04.755Z,100123.69
2023-03-18T05:44:32.510Z,100115.75
2023-03-18T05:46:59.018Z,100128.56
2023-03-18T05:49:27.168Z,100130.50
2023-03-18T05:51:55.113Z,100133.66
2023-03-18T05:54:22.029Z,100134.63
2023-03-18T05:56:52.335Z,100128.81
2023-03-18T05:59:19.714Z,100126.50
2023-03-18T06:01:46.747Z,100135.59
2023-03-18T06:04:13.160Z,100132.69
2023-03-18T06:06:40.733Z,100135.84
2023-03-18T06:09:12.253Z,100142.38
2023-03-18T06:11:40.210Z,100138.34
2023-03-18T06:14:08.040Z,100144.41
2023-03-18T06:16:44.186Z,100142.13
2023-03-18T06:19:11.929Z,100144.31
2023-03-18T06:21:39.362Z,100144.81
2023-03-18T06:24:07.193Z,100136.88
2023-03-18T06:26:34.110Z,100133.13
2023-03-18T06:29:00.529Z,100134.59
2023-03-18T06:31:27.292Z,100150.59
2023-03-18T06:33:53.750Z,100136.50
2023-03-18T06:36:20.807Z,100136.72
2023-03-18T06:38:47.397Z,100154.69
2023-03-18T06:41:14.664Z,100156.25
2023-03-18T06:43:41.061Z,100164.31
2023-03-18T06:46:08.210Z,100161.44
2023-03-18T06:48:35.215Z,100169.13
2023-03-18T06:51:01.616Z,100170.59
2023-03-18T06:53:29.427Z,100167.63
2023-03-18T06:55:56.714Z,100165.66
2023-03-18T06:58:24.629Z,100157.44
2023-03-18T07:00:51.472Z,100164.72
2023-03-18T07:03:17.886Z,100169.91
2023-03-18T07:05:44.298Z,100172.19
2023-03-18T07:08:10.880Z,100176.56
2023-03-18T07:10:37.337Z,100179.75
2023-03-18T07:13:04.634Z,100187.03
2023-03-18T07:16:30.601Z,100194.56
2023-03-18T07:18:58.990Z,100194.13
2023-03-18T07:21:26.163Z,100202.59
2023-03-18T07:23:58.190Z,100188.91
2023-03-18T07:26:25.232Z,100192.13
2023-03-18T07:28:52.046Z,100200.44
2023-03-18T07:31:18.746Z,100198.09
2023-03-18T07:33:45.233Z,100199.97
2023-03-18T07:36:15.275Z,100200.47
2023-03-18T07:38:42.112Z,100213.34
2023-03-18T07:41:08.547Z,100217.25
2023-03-18T07:43:35.189Z,100220.44
2023-03-18T07:46:01.595Z,100224.53
2023-03-18T07:48:28.045Z,100226.25
2023-03-18T07:51:27.278Z,100222.56
2023-03-18T07:53:56.639Z,100223.53
2023-03-18T07:56:27.172Z,100227.22
2023-03-18T07:58:53.604Z,100232.38
2023-03-18T08:01:20.015Z,100232.22
2023-03-18T08:03:47.550Z,100240.50
2023-03-18T08:06:19.603Z,100233.56
2023-03-18T08:08:46.785Z,100239.88
2023-03-18T08:11:14.693Z,100243.94
2023-03-18T08:14:11.011Z,100243.63
2023-03-18T08:16:37.603Z,100244.75
2023-03-18T08:19:04.198Z,100244.19
2023-03-18T08:21:30.764Z,100253.19
2023-03-18T08:23:57.274Z,100245.91
2023-03-18T08:26:24.206Z,100256.91
2023-03-18T08:28:50.619Z,100249.88
2023-03-18T08:31:17.349Z,100255.97
2023-03-18T08:33:43.796Z,100256.53
2023-03-18T08:36:10.246Z,100259.28
2023-03-18T08:38:36.670Z,100261.75
2023-03-18T08:41:03.913Z,100268.81
2023-03-18T08:43:30.392Z,100270.78
2023-03-18T08:45:57.577Z,100261.53
2023-03-18T08:48:25.655Z,100270.84
2023-03-18T08:50:52.598Z,100270.41
2023-03-18T08:53:19.508Z,100267.63
2023-03-18T08:55:46.759Z,100281.13
2023-03-18T08:58:13.481Z,100269.53
2023-03-18T09:00:42.764Z,100279.06
2023-03-18T09:03:10.031Z,100273.03
2023-03-18T09:05:37.647Z,100275.38
2023-03-18T09:08:05.092Z,100271.91
2023-03-18T09:10:31.548Z,100285.31
2023-03-18T09:12:58.020Z,100275.13
2023-03-18T09:15:24.612Z,100270.16
2023-03-18T09:18:08.120Z,100272.44
2023-03-18T09:20:37.715Z,100273.25
2023-03-18T09:23:04.902Z,100270.56
2023-03-18T09:25:31.764Z,100272.09
2023-03-18T09:28:36.085Z,100275.81
2023-03-18T09:31:32.662Z,100266.09
2023-03-18T09:34:09.694Z,100272.94
2023-03-18T09:37:13.804Z,100271.09
2023-03-18T09:39:43.319Z,100274.56
2023-03-18T09:42:32.194Z,100279.03
2023-03-18T09:55:15.348Z,100289.69
2023-03-18T09:57:51.504Z,100285.41
2023-03-18T10:00:32.360Z,100288.94
2023-03-18T10:03:06.380Z,100294.53
2023-03-18T10:06:07.870Z,100290.25
2023-03-18T10:08:47.033Z,100296.16
2023-03-18T10:11:41.437Z,100293.91
2023-03-18T10:14:26.580Z,100287.84
2023-03-18T10:17:09.316Z,100299.00
2023-03-18T10:19:37.627Z,100293.19
2023-03-18T10:22:28.922Z,100295.50
2023-03-18T10:25:03.516Z,100302.66
2023-03-18T10:27:52.973Z,100302.06
2023-03-18T10:30:19.419Z,100313.25
2023-03-18T10:32:56.863Z,100305.88
2023-03-18T10:35:34.430Z,100312.59
2023-03-18T10:38:17.869Z,100306.22
2023-03-18T10:40:46.904Z,100310.78
2023-03-18T10:43:17.743Z,100310.00
2023-03-18T10:45:46.782Z,100314.28
2023-03-18T10:48:25.489Z,100305.06
2023-03-18T10:51:31.461Z,100303.59
2023-03-18T10:54:23.015Z,100307.75
2023-03-18T10:56:49.719Z,100312.72
2023-03-18T10:59:22.780Z,100317.31
2023-03-18T11:01:57.778Z,100307.06
2023-03-18T11:04:24.478Z,100305.31
2023-03-18T11:07:03.598Z,100313.22
2023-03-18T11:09:36.374Z,100319.97
2023-03-18T11:12:05.787Z,100318.09
2023-03-18T11:14:33.661Z,100322.09
2023-03-18T11:17:22.110Z,100327.88
2023-03-18T11:19:59.748Z,100318.78
2023-03-18T11:22:27.708Z,100314.25
2023-03-18T11:25:06.108Z,100315.28
2023-03-18T11:27:38.381Z,100317.19
2023-03-18T11:30:34.753Z,100319.75
2023-03-18T11:33:15.815Z,100330.31
2023-03-18T11:35:50.942Z,100326.06
2023-03-18T11:38:35.352Z,100316.03
2023-03-18T11:41:09.120Z,100317.59
2023-03-18T11:43:37.724Z,100323.06
2023-03-18T11:46:09.429Z,100323.53
2023-03-18T11:48:41.958Z,100324.59
2023-03-18T11:51:27.343Z,100310.56
2023-03-18T11:54:18.370Z,100317.44
2023-03-18T11:57:02.868Z,100318.38
2023-03-18T11:59:53.317Z,100316.13
2023-03-18T12:02:28.846Z,100314.75
2023-03-18T12:05:10.875Z,100311.78
2023-03-18T12:07:55.719Z,100318.56
2023-03-18T12:10:39.019Z,100309.56
2023-03-18T12:13:35.706Z,100301.44
2023-03-18T12:16:28.766Z,100294.22
2023-03-18T12:19:19.909Z,100305.66
2023-03-18T12:22:15.325Z,100305.88
2023-03-18T12:24:52.450Z,100300.03
2023-03-18T12:27:32.410Z,100306.19
2023-03-18T12:30:26.087Z,100305.69
2023-03-18T12:33:14.500Z,100302.63
2023-03-18T12:36:08.081Z,100301.84
2023-03-18T12:38:51.987Z,100288.72
2023-03-18T12:41:38.415Z,100292.00
2023-03-18T12:44:13.599Z,100290.06
2023-03-18T12:46:48.399Z,100302.34
2023-03-18T12:49:36.413Z,100304.13
2023-03-18T12:52:02.826Z,100291.84
2023-03-18T12:54:33.717Z,100294.13
2023-03-18T12:57:06.231Z,100302.41
2023-03-18T12:59:41.994Z,100288.72
2023-03-18T13:02:33.081Z,100293.63
2023-03-18T13:05:03.418Z,100300.47
2023-03-18T13:07:40.630Z,100303.06
2023-03-18T13:10:24.295Z,100295.84
2023-03-18T13:13:03.643Z,100285.31
2023-03-18T13:15:42.814Z,100279.97
2023-03-18T13:18:18.962Z,100277.31
2023-03-18T13:20:47.685Z,100292.72
2023-03-18T13:23:24.697Z,100296.63
2023-03-18T13:26:15.466Z,100288.84
2023-03-18T13:29:08.576Z,100285.19
2023-03-18T13:32:19.732Z,100299.19
2023-03-18T13:35:04.641Z,100293.00
2023-03-18T13:37:34.025Z,100286.13
2023-03-18T13:40:19.145Z,100286.69
2023-03-18T13:42:49.237Z,100288.50
2023-03-18T13:45:22.376Z,100291.06
2023-03-18T13:47:56.521Z,100291.19
2023-03-18T13:50:30.701Z,100294.22
2023-03-18T13:52:59.554Z,100294.38
2023-03-18T13:55:53.459Z,100294.72
2023-03-18T13:58:29.892Z,100297.44
2023-03-18T14:00:56.634Z,100298.06
2023-03-18T14:03:31.463Z,100291.59
2023-03-18T14:06:03.910Z,100286.38
2023-03-18T14:08:43.892Z,100293.84
2023-03-18T14:11:20.178Z,100288.31
2023-03-18T14:13:53.522Z,100291.16
2023-03-18T14:16:28.127Z,100292.38
2023-03-18T14:19:22.008Z,100296.66
2023-03-18T14:21:53.527Z,100292.63
2023-03-18T14:24:21.628Z,100292.53
2023-03-18T14:27:17.172Z,100281.25
2023-03-18T14:29:47.320Z,100288.75
2023-03-18T14:32:22.576Z,100288.63
2023-03-18T14:35:18.212Z,100290.06
2023-03-18T14:38:25.038Z,100293.31
2023-03-18T14:40:56.208Z,100291.63
2023-03-18T14:43:40.292Z,100289.59
2023-03-18T14:46:18.116Z,100286.31
2023-03-18T14:48:45.092Z,100284.41
2023-03-18T14:51:17.588Z,100277.66
2023-03-18T14:53:51.260Z,100292.38
2023-03-18T14:56:22.804Z,100282.13
2023-03-18T14:58:53.398Z,100281.94
2023-03-18T15:01:26.441Z,100280.56
2023-03-18T15:03:55.257Z,100274.66
2023-03-18T15:06:25.443Z,100285.34
2023-03-18T15:09:03.161Z,100274.88
2023-03-18T15:11:30.196Z,100275.63
2023-03-18T15:14:00.056Z,100278.38
2023-03-18T15:16:30.600Z,100278.31
2023-03-18T15:18:57.120Z,100271.72
2023-03-18T15:21:28.677Z,100269.03
2023-03-18T15:24:00.100Z,100271.63
2023-03-18T15:27:04.678Z,100275.09
2023-03-18T15:29:36.357Z,100273.16
2023-03-18T15:32:10.486Z,100280.72
2023-03-18T15:34:38.258Z,100273.72
2023-03-18T15:37:22.302Z,100266.84
2023-03-18T15:39:49.596Z,100274.16
2023-03-18T15:42:19.180Z,100278.41
2023-03-18T15:44:58.918Z,100276.56
2023-03-18T15:47:29.584Z,100285.63
2023-03-18T15:50:02.147Z,100278.25
2023-03-18T15:52:36.457Z,100277.94
2023-03-18T15:55:04.890Z,100280.28
2023-03-18T15:57:40.154Z,100285.16
2023-03-18T16:00:09.187Z,100281.09
2023-03-18T16:02:36.401Z,100287.16
2023-03-18T16:05:07.802Z,100283.63
2023-03-18T16:07:34.524Z,100285.47
2023-03-18T16:10:01.568Z,100272.38
2023-03-18T16:12:31.626Z,100284.69
2023-03-18T16:14:58.075Z,100283.53
2023-03-18T16:17:24.651Z,100280.19
2023-03-18T16:19:55.138Z,100278.66
2023-03-18T16:22:22.037Z,100278.56
2023-03-18T16:24:48.595Z,100280.84
2023-03-18T16:27:39.247Z,100285.47
2023-03-18T16:30:07.886Z,100289.31
2023-03-18T16:32:35.555Z,100289.38
2023-03-18T16:35:02.764Z,100294.16
2023-03-18T16:37:29.243Z,100297.97
2023-03-18T16:39:56.032Z,100298.75
2023-03-18T16:42:23.958Z,100290.91
2023-03-18T16:44:51.128Z,100296.22
2023-03-18T16:47:27.133Z,100299.47
2023-03-18T16:49:54.288Z,100293.25
2023-03-18T16:52:20.723Z,100287.63
2023-03-18T16:54:47.208Z,100288.09
2023-03-18T16:57:20.032Z,100302.47
2023-03-18T16:59:50.804Z,100308.38
2023-03-18T17:02:38.131Z,100301.47
2023-03-18T17:05:05.510Z,100297.22
2023-03-18T17:07:33.900Z,100304.38
2023-03-18T17:10:00.458Z,100303.63
2023-03-18T17:12:27.056Z,100309.13
2023-03-18T17:14:57.992Z,100311.34
2023-03-18T17:17:35.836Z,100321.66
2023-03-18T17:20:05.078Z,100321.66
2023-03-18T17:22:32.979Z,100322.66
2023-03-18T17:25:01.365Z,100329.47
2023-03-18T17:27:34.015Z,100320.59
2023-03-18T17:30:00.848Z,100323.16
2023-03-18T17:32:27.350Z,100323.81
2023-03-18T17:34:54.253Z,100324.50
2023-03-18T17:37:21.415Z,100320.13
2023-03-18T17:39:47.857Z,100323.72
2023-03-18T17:42:23.104Z,100324.44
2023-03-18T17:44:49.631Z,100332.38
2023-03-18T17:47:16.053Z,100329.09
2023-03-18T17:49:42.448Z,100336.44
2023-03-18T17:52:11.151Z,100331.22
2023-03-18T17:54:37.540Z,100335.63
2023-03-18T17:57:04.081Z,100337.94
2023-03-18T17:59:30.620Z,100331.75
2023-03-18T18:01:57.133Z,100335.97
2023-03-18T18:04:24.884Z,100331.00
2023-03-18T18:06:51.529Z,100335.78
2023-03-18T18:09:19.285Z,100332.84
2023-03-18T18:11:50.648Z,100326.41
2023-03-18T18:14:26.789Z,100328.03
2023-03-18T18:16:56.042Z,100324.56
2023-03-18T18:19:22.837Z,100320.53
2023-03-18T18:21:50.395Z,100320.81
2023-03-18T18:24:23.038Z,100328.22
2023-03-18T18:26:49.944Z,100327.84
2023-03-18T18:29:22.165Z,100333.94
2023-03-18T18:31:49.386Z,100334.50
2023-03-18T18:34:16.305Z,100336.69
2023-03-18T18:36:43.052Z,100335.25
2023-03-18T18:39:09.520Z,100335.34
2023-03-18T18:41:37.397Z,100333.78
2023-03-18T18:44:03.892Z,100338.59
2023-03-18T18:46:30.908Z,100345.22
2023-03-18T18:48:57.380Z,100342.59
2023-03-18T18:51:25.244Z,100347.84
2023-03-18T18:53:53.747Z,100351.06
2023-03-18T18:56:39.016Z,100347.81
2023-03-18T18:59:23.214Z,100360.22
2023-03-18T19:01:50.829Z,100359.63
2023-03-18T19:04:17.408Z,100353.31
2023-03-18T19:06:45.766Z,100354.66
2023-03-18T19:09:23.881Z,100355.34
2023-03-18T19:11:51.614Z,100357.41
2023-03-18T19:14:21.816Z,100355.94
2023-03-18T19:16:48.930Z,100361.44
2023-03-18T19:19:20.626Z,100356.06
2023-03-18T19:21:47.176Z,100356.22
2023-03-18T19:24:26.613Z,100354.97
2023-03-18T19:27:00.053Z,100350.09
2023-03-18T19:29:27.232Z,100354.56
2023-03-18T19:31:54.527Z,100357.75
2023-03-18T19:34:22.250Z,100356.66
2023-03-18T19:36:52.816Z,100364.47
2023-03-18T19:39:21.883Z,100360.78
2023-03-18T19:41:49.070Z,100365.94
2023-03-18T19:44:22.643Z,100373.56
2023-03-18T19:46:51.620Z,100362.63
2023-03-18T19:49:35.159Z,100361.53
2023-03-18T19:52:02.776Z,100363.47
2023-03-18T19:54:32.015Z,100360.97
2023-03-18T19:57:03.854Z,100362.78
2023-03-18T19:59:38.309Z,100361.09
2023-03-18T20:02:17.511Z,100371.75
2023-03-18T20:04:44.088Z,100373.88
2023-03-18T20:07:10.660Z,100376.06
2023-03-18T20:09:37.250Z,100364.41
2023-03-18T20:12:05.840Z,100375.09
2023-03-18T20:14:38.004Z,100379.06
2023-03-18T20:17:23.273Z,100389.47
2023-03-18T20:19:50.507Z,100386.56
2023-03-18T20:22:29.967Z,100382.94
2023-03-18T20:24:56.656Z,100389.22
2023-03-18T20:27:23.185Z,100383.03
2023-03-18T20:29:49.690Z,100376.53
2023-03-18T20:32:16.381Z,100376.06
2023-03-18T20:34:43.896Z,100380.72
2023-03-18T20:37:24.157Z,100380.13
2023-03-18T20:39:52.131Z,100375.56
2023-03-18T20:42:19.081Z,100373.09
2023-03-18T20:44:46.204Z,100379.59
2023-03-18T20:47:13.501Z,100386.44
2023-03-18T20:49:44.001Z,100376.94
2023-03-18T20:52:22.747Z,100377.38
2023-03-18T20:54:49.392Z,100375.38
2023-03-18T20:57:16.125Z,100372.59
2023-03-18T20:59:42.517Z,100374.75
2023-03-18T21:02:28.266Z,100379.06
2023-03-18T21:04:56.573Z,100382.75
2023-03-18T21:07:23.238Z,100385.09
2023-03-18T21:09:49.737Z,100381.53
2023-03-18T21:12:17.704Z,100382.28
2023-03-18T21:14:44.494Z,100384.63
2023-03-18T21:17:21.679Z,100378.75
2023-03-18T21:19:49.744Z,100386.47
2023-03-18T21:22:21.739Z,100383.94
2023-03-18T21:24:49.380Z,100384.44
2023-03-18T21:27:22.448Z,100388.84
2023-03-18T21:29:51.096Z,100384.59
2023-03-18T21:32:27.126Z,100381.78
2023-03-18T21:34:54.583Z,100377.31
2023-03-18T21:37:23.237Z,100372.41
2023-03-18T21:39:50.374Z,100375.16
2023-03-18T21:42:27.240Z,100375.16
2023-03-18T21:44:54.905Z,100369.44
2023-03-18T21:47:23.505Z,100373.81
2023-03-18T21:49:50.532Z,100366.44
2023-03-18T21:52:19.350Z,100376.09
2023-03-18T21:54:46.852Z,100369.44
2023-03-18T21:57:21.992Z,100381.31
2023-03-18T21:59:49.874Z,100369.72
2023-03-18T22:02:24.927Z,100374.78
2023-03-18T22:04:51.617Z,100378.03
2023-03-18T22:07:18.578Z,100387.97
2023-03-18T22:09:45.837Z,100391.78
2023-03-18T22:12:37.967Z,100394.09
2023-03-18T22:15:39.360Z,100388.38
2023-03-18T22:18:07.452Z,100383.59
2023-03-18T22:20:36.406Z,100389.31
2023-03-18T22:23:12.740Z,100390.31
2023-03-18T22:25:39.903Z,100399.53
2023-03-18T22:28:06.332Z,100399.78
2023-03-18T22:30:34.400Z,100395.78
2023-03-18T22:33:03.493Z,100401.31
2023-03-18T22:35:30.728Z,100404.28
2023-03-18T22:37:58.006Z,100415.22
2023-03-18T22:40:29.818Z,100419.69
2023-03-18T22:42:59.638Z,100425.66
2023-03-18T22:45:29.031Z,100415.72
2023-03-18T22:47:58.705Z,100400.09
2023-03-18T22:50:27.950Z,100398.19
2023-03-18T22:53:08.703Z,100412.53
2023-03-18T22:55:38.709Z,100414.50
2023-03-18T22:58:05.885Z,100410.59
2023-03-18T23:00:39.172Z,100411.47
2023-03-18T23:03:20.408Z,100420.19
2023-03-18T23:05:48.664Z,100443.44
2023-03-18T23:08:15.966Z,100452.38
2023-03-18T23:10:45.093Z,100447.97
2023-03-18T23:13:25.512Z,100478.16
2023-03-18T23:15:52.065Z,100466.88
2023-03-18T23:18:19.588Z,100460.38
2023-03-18T23:20:48.695Z,100446.94
2023-03-18T23:23:16.091Z,100417.44
2023-03-18T23:25:44.419Z,100423.03
2023-03-18T23:28:11.220Z,100413.47
2023-03-18T23:30:39.729Z,100414.97
2023-03-18T23:33:07.113Z,100423.72
2023-03-18T23:35:33.848Z,100434.56
2023-03-18T23:38:00.565Z,100439.69
2023-03-18T23:40:27.425Z,100434.22
2023-03-18T23:42:53.854Z,100444.53
2023-03-18T23:45:20.573Z,100448.56
2023-03-18T23:47:47.205Z,100446.00
2023-03-18T23:50:13.648Z,100440.06
2023-03-18T23:52:40.070Z,100439.19
2023-03-18T23:55:18.469Z,100431.69
2023-03-18T23:57:53.943Z,100428.06
